createdAt,value
2022-07-29T00:01:44.464Z,17.00
2022-07-29T00:04:11.609Z,17.00
2022-07-29T00:06:38.618Z,17.00
2022-07-29T00:09:05.537Z,16.90
2022-07-29T00:11:32.541Z,16.80
2022-07-29T00:13:59.340Z,16.80
2022-07-29T00:16:26.206Z,16.80
2022-07-29T00:18:52.996Z,16.80
2022-07-29T00:21:19.926Z,16.80
2022-07-29T00:23:46.788Z,16.80
2022-07-29T00:26:13.575Z,16.80
2022-07-29T00:28:40.396Z,16.70
2022-07-29T00:31:07.283Z,16.70
2022-07-29T00:33:34.077Z,16.70
2022-07-29T00:36:00.886Z,16.70
2022-07-29T00:38:27.689Z,16.70
2022-07-29T00:40:54.624Z,16.60
2022-07-29T00:43:21.429Z,16.60
2022-07-29T00:45:48.211Z,16.60
2022-07-29T00:48:15.004Z,16.60
2022-07-29T00:50:42.537Z,16.50
2022-07-29T00:53:09.883Z,16.50
2022-07-29T00:55:36.896Z,16.40
2022-07-29T00:58:04.323Z,16.50
2022-07-29T01:00:31.730Z,16.40
2022-07-29T01:02:58.720Z,16.40
2022-07-29T01:05:50.576Z,16.40
2022-07-29T01:08:16.239Z,16.40
2022-07-29T01:10:43.953Z,16.30
2022-07-29T01:13:11.678Z,16.20
2022-07-29T01:15:49.227Z,16.20
2022-07-29T01:18:31.327Z,16.20
2022-07-29T01:21:16.915Z,16.20
2022-07-29T01:24:02.474Z,16.10
2022-07-29T01:26:47.707Z,16.20
2022-07-29T01:29:18.765Z,16.10
2022-07-29T01:32:00.581Z,16.10
2022-07-29T01:34:30.644Z,16.00
2022-07-29T01:37:24.079Z,15.90
2022-07-29T01:39:52.472Z,16.00
2022-07-29T01:42:24.693Z,15.90
2022-07-29T01:44:54.326Z,16.00
2022-07-29T01:47:24.399Z,15.90
2022-07-29T01:49:52.417Z,15.80
2022-07-29T01:52:32.421Z,15.80
2022-07-29T01:55:03.552Z,15.80
2022-07-29T01:57:32.710Z,15.80
2022-07-29T02:00:01.211Z,15.80
2022-07-29T02:02:28.903Z,15.70
2022-07-29T02:04:56.629Z,15.60
2022-07-29T02:07:24.350Z,15.60
2022-07-29T02:09:51.912Z,15.60
2022-07-29T02:12:19.436Z,15.60
2022-07-29T02:14:49.285Z,15.70
2022-07-29T02:17:19.371Z,15.60
2022-07-29T02:19:46.766Z,15.60
2022-07-29T02:22:14.259Z,15.50
2022-07-29T02:24:41.941Z,15.50
2022-07-29T02:27:09.021Z,15.50
2022-07-29T02:29:36.870Z,15.50
2022-07-29T02:32:04.471Z,15.50
2022-07-29T02:34:32.020Z,15.50
2022-07-29T02:36:59.992Z,15.50
2022-07-29T02:39:28.557Z,15.50
2022-07-29T02:42:00.934Z,15.40
2022-07-29T02:44:34.129Z,15.40
2022-07-29T02:47:04.757Z,15.30
2022-07-29T02:49:38.651Z,15.30
2022-07-29T02:52:09.659Z,15.30
2022-07-29T02:54:39.668Z,15.30
2022-07-29T02:57:10.482Z,15.30
2022-07-29T02:59:37.753Z,15.20
2022-07-29T03:02:06.064Z,15.20
2022-07-29T03:04:33.237Z,15.20
2022-07-29T03:07:01.272Z,15.20
2022-07-29T03:09:28.746Z,15.20
2022-07-29T03:11:56.829Z,15.10
2022-07-29T03:14:24.480Z,15.20
2022-07-29T03:16:52.192Z,15.10
2022-07-29T03:19:20.053Z,15.00
2022-07-29T03:21:46.974Z,14.90
2022-07-29T03:24:33.370Z,15.00
2022-07-29T03:27:00.684Z,15.00
2022-07-29T03:29:33.567Z,15.00
2022-07-29T03:32:03.395Z,15.00
2022-07-29T03:34:31.124Z,14.90
2022-07-29T03:36:58.116Z,14.80
2022-07-29T03:39:27.477Z,14.80
2022-07-29T03:41:56.063Z,14.80
2022-07-29T03:44:23.613Z,14.90
2022-07-29T03:46:51.635Z,14.80
2022-07-29T03:49:19.944Z,14.70
2022-07-29T03:51:46.982Z,14.70
2022-07-29T03:54:13.906Z,14.70
2022-07-29T03:56:41.622Z,14.80
2022-07-29T03:59:08.657Z,14.60
2022-07-29T04:01:35.884Z,14.60
2022-07-29T04:04:03.024Z,14.60
2022-07-29T04:06:29.929Z,14.70
2022-07-29T04:08:56.736Z,14.70
2022-07-29T04:11:23.697Z,14.70
2022-07-29T04:13:50.445Z,14.70
2022-07-29T04:16:17.279Z,14.70
2022-07-29T04:18:44.106Z,14.80
2022-07-29T04:21:10.915Z,15.00
2022-07-29T04:23:45.901Z,15.10
2022-07-29T04:26:20.350Z,15.00
2022-07-29T04:28:47.129Z,15.00
2022-07-29T04:31:14.141Z,14.90
2022-07-29T04:33:40.966Z,14.90
2022-07-29T04:36:07.906Z,15.00
2022-07-29T04:38:54.672Z,15.10
2022-07-29T04:41:21.445Z,15.20
2022-07-29T04:43:48.767Z,15.30
2022-07-29T04:46:15.648Z,15.50
2022-07-29T04:48:42.648Z,15.60
2022-07-29T04:51:09.534Z,15.60
2022-07-29T04:53:36.317Z,15.70
2022-07-29T04:56:03.484Z,15.70
2022-07-29T04:58:30.408Z,15.80
2022-07-29T05:00:57.227Z,15.80
2022-07-29T05:03:23.998Z,15.80
2022-07-29T05:05:50.788Z,15.90
2022-07-29T05:08:17.570Z,15.90
2022-07-29T05:10:44.489Z,15.90
2022-07-29T05:13:11.324Z,15.90
2022-07-29T05:15:38.384Z,15.90
2022-07-29T05:18:05.502Z,16.00
2022-07-29T05:20:33.981Z,16.10
2022-07-29T05:23:01.715Z,16.20
2022-07-29T05:25:43.281Z,16.20
2022-07-29T05:28:11.818Z,16.30
2022-07-29T05:30:38.798Z,16.30
2022-07-29T05:33:05.584Z,16.40
2022-07-29T05:35:32.438Z,16.40
2022-07-29T05:37:59.252Z,16.50
2022-07-29T05:40:26.050Z,16.40
2022-07-29T05:43:05.957Z,16.50
2022-07-29T05:45:35.522Z,16.60
2022-07-29T05:48:16.973Z,16.70
2022-07-29T05:50:44.497Z,16.90
2022-07-29T05:53:19.436Z,17.00
2022-07-29T05:55:48.133Z,17.20
2022-07-29T05:58:15.401Z,17.20
2022-07-29T06:00:42.426Z,17.20
2022-07-29T06:03:09.333Z,17.10
2022-07-29T06:05:36.307Z,17.00
2022-07-29T06:08:03.454Z,17.00
2022-07-29T06:10:30.495Z,17.00
2022-07-29T06:12:58.940Z,17.00
2022-07-29T06:15:26.079Z,17.10
2022-07-29T06:17:59.405Z,17.20
2022-07-29T06:20:32.124Z,17.30
2022-07-29T06:23:01.927Z,17.40
2022-07-29T06:25:35.774Z,17.50
2022-07-29T06:28:03.430Z,17.50
2022-07-29T06:30:30.395Z,17.70
2022-07-29T06:32:57.558Z,17.80
2022-07-29T06:35:41.217Z,17.90
2022-07-29T06:38:30.973Z,18.00
2022-07-29T06:41:07.096Z,17.90
2022-07-29T06:43:52.390Z,17.90
2022-07-29T06:46:23.147Z,17.90
2022-07-29T06:48:50.651Z,17.90
2022-07-29T06:51:22.807Z,18.00
2022-07-29T06:53:58.159Z,18.20
2022-07-29T06:56:28.246Z,18.30
2022-07-29T06:58:55.344Z,18.30
2022-07-29T07:01:22.865Z,18.30
2022-07-29T07:03:49.954Z,18.30
2022-07-29T07:06:17.346Z,18.50
2022-07-29T07:08:44.949Z,18.70
2022-07-29T07:11:12.489Z,19.00
2022-07-29T07:13:45.720Z,19.20
2022-07-29T07:16:16.754Z,19.30
2022-07-29T07:18:46.293Z,19.40
2022-07-29T07:21:19.057Z,19.50
2022-07-29T07:23:46.949Z,19.60
2022-07-29T07:26:13.985Z,19.70
2022-07-29T07:28:40.994Z,19.80
2022-07-29T07:31:08.246Z,19.90
2022-07-29T07:33:35.141Z,20.00
2022-07-29T07:36:04.124Z,20.20
2022-07-29T07:38:30.957Z,20.20
2022-07-29T07:40:58.971Z,20.10
2022-07-29T07:43:26.008Z,20.00
2022-07-29T07:45:52.915Z,19.90
2022-07-29T07:48:19.785Z,20.00
2022-07-29T07:50:46.954Z,20.20
2022-07-29T07:53:13.934Z,20.50
2022-07-29T07:58:39.797Z,21.00
2022-07-29T08:01:06.922Z,21.10
2022-07-29T08:03:33.970Z,21.30
2022-07-29T08:06:00.883Z,21.70
2022-07-29T08:08:30.782Z,22.00
2022-07-29T08:10:57.853Z,22.20
2022-07-29T08:13:26.525Z,22.40
2022-07-29T08:16:01.073Z,22.70
2022-07-29T08:18:29.136Z,22.70
2022-07-29T08:20:56.065Z,22.80
2022-07-29T08:23:23.785Z,22.90
2022-07-29T08:25:55.315Z,23.00
2022-07-29T08:28:26.058Z,23.00
2022-07-29T08:30:53.457Z,23.00
2022-07-29T08:33:20.294Z,23.10
2022-07-29T08:35:47.185Z,23.20
2022-07-29T08:38:15.715Z,23.30
2022-07-29T08:40:43.451Z,23.50
2022-07-29T08:43:10.419Z,23.50
2022-07-29T08:45:48.916Z,23.50
2022-07-29T08:48:16.583Z,23.40
2022-07-29T08:50:46.113Z,23.40
2022-07-29T08:53:27.997Z,23.40
2022-07-29T08:55:55.580Z,23.50
2022-07-29T08:58:24.610Z,23.80
2022-07-29T09:00:53.555Z,24.30
2022-07-29T09:03:24.197Z,24.50
2022-07-29T09:05:52.014Z,24.60
2022-07-29T09:08:19.189Z,24.70
2022-07-29T09:10:46.531Z,24.50
2022-07-29T09:13:13.394Z,24.50
2022-07-29T09:15:40.330Z,24.30
2022-07-29T09:18:07.639Z,24.20
2022-07-29T09:21:11.333Z,24.00
2022-07-29T09:23:38.170Z,23.90
2022-07-29T09:26:06.420Z,23.80
2022-07-29T09:28:33.746Z,24.00
2022-07-29T09:31:00.714Z,24.10
2022-07-29T09:33:40.067Z,24.00
2022-07-29T09:36:08.334Z,24.00
2022-07-29T09:38:40.930Z,24.10
2022-07-29T09:41:11.887Z,23.90
2022-07-29T09:43:39.604Z,23.90
2022-07-29T09:46:13.336Z,23.90
2022-07-29T09:48:40.470Z,23.80
2022-07-29T09:51:20.647Z,23.90
2022-07-29T09:53:49.132Z,23.90
2022-07-29T09:56:16.028Z,23.90
2022-07-29T09:58:42.962Z,24.10
2022-07-29T10:01:09.967Z,24.30
2022-07-29T10:03:53.281Z,24.40
2022-07-29T10:06:20.239Z,24.60
2022-07-29T10:08:47.573Z,24.60
2022-07-29T10:11:19.035Z,24.70
2022-07-29T10:13:47.283Z,24.80
2022-07-29T10:16:15.330Z,25.00
2022-07-29T10:18:42.966Z,25.10
2022-07-29T10:21:11.079Z,25.20
2022-07-29T10:23:50.347Z,25.20
2022-07-29T10:26:17.808Z,24.80
2022-07-29T10:28:45.431Z,24.50
2022-07-29T10:31:16.554Z,24.20
2022-07-29T10:34:02.116Z,24.10
2022-07-29T10:36:49.001Z,23.90
2022-07-29T10:39:15.945Z,24.00
2022-07-29T10:41:47.723Z,24.40
2022-07-29T10:44:23.114Z,24.40
2022-07-29T10:46:51.733Z,24.40
2022-07-29T10:49:19.743Z,24.60
2022-07-29T10:51:52.601Z,24.60
2022-07-29T10:54:20.311Z,24.70
2022-07-29T10:56:48.957Z,24.70
2022-07-29T10:59:22.960Z,24.90
2022-07-29T11:01:53.675Z,25.20
2022-07-29T11:04:40.237Z,25.20
2022-07-29T11:07:10.470Z,25.00
2022-07-29T11:09:38.355Z,24.90
2022-07-29T11:12:25.887Z,24.70
2022-07-29T11:14:53.634Z,24.70
2022-07-29T11:17:20.480Z,25.00
2022-07-29T11:19:52.056Z,25.10
2022-07-29T11:22:35.313Z,25.20
2022-07-29T11:25:16.736Z,25.20
2022-07-29T11:27:45.779Z,25.20
2022-07-29T11:30:15.420Z,25.40
2022-07-29T11:32:44.841Z,25.20
2022-07-29T11:35:19.132Z,25.40
2022-07-29T11:37:52.113Z,25.40
2022-07-29T11:40:25.025Z,25.50
2022-07-29T11:42:52.478Z,25.50
2022-07-29T11:45:43.337Z,25.60
2022-07-29T11:48:27.792Z,25.60
2022-07-29T11:50:55.402Z,25.70
2022-07-29T11:53:25.344Z,25.90
2022-07-29T11:55:55.663Z,25.80
2022-07-29T11:58:26.517Z,26.00
2022-07-29T12:00:55.460Z,26.00
2022-07-29T12:03:33.562Z,25.80
2022-07-29T12:06:14.928Z,25.60
2022-07-29T12:08:43.689Z,25.60
2022-07-29T12:11:23.495Z,25.60
2022-07-29T12:13:51.561Z,25.60
2022-07-29T12:16:18.820Z,25.50
2022-07-29T12:19:02.840Z,25.40
2022-07-29T12:21:54.054Z,25.20
2022-07-29T12:24:26.752Z,25.20
2022-07-29T12:26:55.527Z,25.40
2022-07-29T12:29:33.507Z,25.40
2022-07-29T12:32:03.126Z,25.40
2022-07-29T12:34:31.116Z,25.00
2022-07-29T12:37:01.975Z,24.90
2022-07-29T12:39:29.443Z,24.70
2022-07-29T12:42:04.785Z,24.70
2022-07-29T12:44:52.526Z,24.70
2022-07-29T12:47:20.278Z,24.70
2022-07-29T12:49:47.949Z,25.00
2022-07-29T12:52:24.792Z,24.90
2022-07-29T12:54:51.660Z,24.80
2022-07-29T12:57:20.107Z,24.80
2022-07-29T12:59:59.487Z,24.90
2022-07-29T13:02:26.391Z,24.80
2022-07-29T13:05:00.723Z,24.70
2022-07-29T13:07:54.139Z,24.60
2022-07-29T13:10:18.206Z,24.50
2022-07-29T13:13:10.656Z,24.50
2022-07-29T13:15:38.561Z,24.40
2022-07-29T13:18:05.735Z,24.40
2022-07-29T13:20:33.156Z,24.40
2022-07-29T13:23:01.553Z,24.40
2022-07-29T13:25:32.793Z,24.40
2022-07-29T13:28:00.240Z,24.40
2022-07-29T13:30:27.080Z,24.20
2022-07-29T13:32:54.085Z,24.20
2022-07-29T13:35:21.380Z,24.30
2022-07-29T13:37:48.487Z,24.30
2022-07-29T13:40:45.112Z,24.40
2022-07-29T13:43:12.255Z,24.40
2022-07-29T13:45:39.145Z,24.50
2022-07-29T13:48:07.290Z,24.60
2022-07-29T13:50:34.195Z,24.70
2022-07-29T13:53:01.090Z,24.70
2022-07-29T13:55:27.945Z,24.70
2022-07-29T13:57:54.776Z,24.70
2022-07-29T14:00:21.733Z,24.70
2022-07-29T14:02:48.671Z,24.50
2022-07-29T14:05:15.535Z,24.30
2022-07-29T14:07:42.393Z,24.30
2022-07-29T14:10:09.631Z,24.20
2022-07-29T14:12:36.769Z,24.20
2022-07-29T14:15:03.749Z,24.00
2022-07-29T14:17:30.750Z,24.10
2022-07-29T14:19:57.725Z,24.00
2022-07-29T14:22:26.483Z,23.90
2022-07-29T14:24:56.502Z,23.80
2022-07-29T14:27:37.670Z,23.80
2022-07-29T14:30:06.412Z,23.80
2022-07-29T14:32:33.282Z,23.90
2022-07-29T14:35:00.331Z,23.90
2022-07-29T14:37:27.289Z,24.00
2022-07-29T14:39:55.541Z,24.00
2022-07-29T14:42:22.370Z,23.90
2022-07-29T14:44:50.278Z,23.80
2022-07-29T14:47:17.271Z,23.90
2022-07-29T14:49:44.147Z,24.00
2022-07-29T14:52:11.113Z,24.00
2022-07-29T14:54:38.022Z,24.10
2022-07-29T14:57:05.017Z,24.10
2022-07-29T14:59:31.892Z,24.10
2022-07-29T15:01:58.995Z,24.00
2022-07-29T15:04:26.278Z,23.80
2022-07-29T15:06:53.246Z,23.70
2022-07-29T15:09:20.018Z,23.70
2022-07-29T15:11:46.931Z,23.70
2022-07-29T15:14:13.714Z,23.80
2022-07-29T15:16:43.779Z,23.70
2022-07-29T15:19:13.614Z,23.60
2022-07-29T15:21:41.569Z,23.50
2022-07-29T15:24:15.278Z,23.60
2022-07-29T15:26:43.459Z,23.90
2022-07-29T15:29:10.392Z,24.10
2022-07-29T15:31:40.669Z,24.10
2022-07-29T15:34:08.411Z,24.20
2022-07-29T15:36:51.652Z,24.20
2022-07-29T15:39:19.998Z,24.30
2022-07-29T15:41:46.938Z,24.60
2022-07-29T15:44:13.861Z,24.20
2022-07-29T15:46:59.955Z,23.90
2022-07-29T15:49:47.243Z,23.90
2022-07-29T15:52:25.155Z,23.80
2022-07-29T15:54:54.207Z,23.80
2022-07-29T15:57:21.332Z,23.70
2022-07-29T15:59:48.330Z,23.60
2022-07-29T16:02:15.653Z,23.60
2022-07-29T16:04:42.720Z,23.60
2022-07-29T16:07:09.996Z,23.60
2022-07-29T16:09:36.930Z,23.70
2022-07-29T16:12:05.005Z,23.80
2022-07-29T16:14:42.243Z,23.90
2022-07-29T16:17:09.326Z,23.80
2022-07-29T16:19:44.066Z,23.60
2022-07-29T16:22:11.414Z,23.60
2022-07-29T16:24:39.305Z,23.50
2022-07-29T16:27:06.313Z,23.50
2022-07-29T16:29:33.312Z,23.40
2022-07-29T16:32:01.415Z,23.40
2022-07-29T16:34:28.600Z,23.30
2022-07-29T16:36:57.800Z,23.40
2022-07-29T16:39:24.994Z,23.40
2022-07-29T16:41:51.922Z,23.40
2022-07-29T16:44:18.932Z,23.50
2022-07-29T16:46:45.828Z,23.50
2022-07-29T16:49:14.095Z,23.40
2022-07-29T16:51:47.945Z,23.30
2022-07-29T16:54:15.109Z,23.20
2022-07-29T16:56:42.170Z,23.20
2022-07-29T16:59:09.067Z,23.30
2022-07-29T17:01:36.203Z,23.20
2022-07-29T17:04:06.301Z,23.10
2022-07-29T17:06:37.245Z,23.20
2022-07-29T17:09:06.065Z,23.30
2022-07-29T17:11:53.592Z,23.30
2022-07-29T17:14:23.411Z,23.40
2022-07-29T17:17:00.352Z,23.30
2022-07-29T17:19:34.478Z,23.20
2022-07-29T17:22:12.651Z,23.10
2022-07-29T17:24:43.013Z,23.00
2022-07-29T17:27:10.153Z,22.90
2022-07-29T17:29:40.414Z,22.90
2022-07-29T17:32:08.153Z,22.90
2022-07-29T17:34:39.102Z,22.80
2022-07-29T17:37:06.951Z,22.80
2022-07-29T17:39:36.075Z,22.80
2022-07-29T17:42:04.755Z,22.70
2022-07-29T17:44:36.290Z,22.60
2022-07-29T17:47:04.353Z,22.60
2022-07-29T17:49:31.238Z,22.50
2022-07-29T17:52:00.968Z,22.40
2022-07-29T17:54:28.783Z,22.30
2022-07-29T17:56:58.018Z,22.20
2022-07-29T17:59:25.132Z,22.00
2022-07-29T18:01:53.318Z,21.90
2022-07-29T18:04:21.156Z,21.80
2022-07-29T18:06:48.603Z,21.70
2022-07-29T18:09:15.498Z,21.70
2022-07-29T18:11:44.453Z,21.60
2022-07-29T18:14:13.432Z,21.60
2022-07-29T18:16:40.732Z,21.50
2022-07-29T18:19:07.900Z,21.40
2022-07-29T18:21:45.916Z,21.40
2022-07-29T18:24:18.939Z,21.20
2022-07-29T18:26:46.251Z,21.10
2022-07-29T18:29:13.137Z,21.00
2022-07-29T18:31:41.259Z,20.80
2022-07-29T18:34:08.189Z,20.70
2022-07-29T18:36:34.953Z,20.60
2022-07-29T18:39:01.724Z,20.50
2022-07-29T18:41:28.498Z,20.40
2022-07-29T18:43:55.412Z,20.30
2022-07-29T18:46:22.464Z,20.20
2022-07-29T18:48:49.849Z,20.00
2022-07-29T18:51:16.692Z,19.90
2022-07-29T18:53:44.588Z,19.80
2022-07-29T18:56:11.370Z,19.70
2022-07-29T18:58:38.875Z,19.60
2022-07-29T19:01:05.911Z,19.50
2022-07-29T19:03:32.758Z,19.30
2022-07-29T19:05:59.635Z,19.30
2022-07-29T19:08:26.598Z,19.30
2022-07-29T19:10:53.405Z,19.20
2022-07-29T19:13:20.198Z,19.10
2022-07-29T19:15:47.373Z,19.00
2022-07-29T19:18:14.163Z,19.00
2022-07-29T19:20:42.028Z,18.90
2022-07-29T19:23:09.324Z,18.90
2022-07-29T19:25:36.121Z,18.80
2022-07-29T19:28:03.101Z,18.70
2022-07-29T19:30:29.907Z,18.70
2022-07-29T19:32:56.717Z,18.70
2022-07-29T19:35:31.596Z,18.60
2022-07-29T19:38:03.096Z,18.50
2022-07-29T19:40:30.135Z,18.50
2022-07-29T19:42:57.404Z,18.30
2022-07-29T19:45:24.888Z,18.20
2022-07-29T19:47:52.021Z,18.10
2022-07-29T19:50:18.916Z,18.10
2022-07-29T19:52:47.151Z,18.10
2022-07-29T19:55:14.280Z,18.10
2022-07-29T19:57:41.389Z,18.00
2022-07-29T20:00:11.268Z,18.00
2022-07-29T20:02:39.773Z,17.90
2022-07-29T20:05:07.056Z,17.80
2022-07-29T20:07:33.885Z,17.80
2022-07-29T20:10:00.722Z,17.70
2022-07-29T20:12:27.763Z,17.60
2022-07-29T20:14:54.788Z,17.60
2022-07-29T20:17:24.436Z,17.50
2022-07-29T20:19:51.908Z,17.50
2022-07-29T20:22:20.977Z,17.50
2022-07-29T20:24:49.281Z,17.50
2022-07-29T20:27:19.239Z,17.40
2022-07-29T20:29:47.658Z,17.40
2022-07-29T20:32:14.953Z,17.40
2022-07-29T20:34:42.037Z,17.30
2022-07-29T20:37:14.533Z,17.30
2022-07-29T20:39:42.748Z,17.30
2022-07-29T20:42:09.635Z,17.20
2022-07-29T20:44:36.870Z,17.20
2022-07-29T20:47:05.400Z,17.10
2022-07-29T20:49:39.064Z,17.00
2022-07-29T20:52:09.087Z,17.00
2022-07-29T20:54:35.887Z,17.00
2022-07-29T20:57:03.019Z,16.90
2022-07-29T20:59:29.985Z,17.00
2022-07-29T21:01:56.750Z,17.00
2022-07-29T21:04:30.534Z,16.80
2022-07-29T21:07:02.428Z,16.90
2022-07-29T21:09:29.561Z,16.90
2022-07-29T21:11:59.859Z,16.90
2022-07-29T21:14:39.072Z,16.90
2022-07-29T21:17:07.584Z,16.90
2022-07-29T21:19:34.812Z,16.90
2022-07-29T21:22:01.609Z,16.80
2022-07-29T21:24:29.074Z,16.80
2022-07-29T21:27:20.759Z,16.80
2022-07-29T21:29:48.472Z,16.80
2022-07-29T21:32:27.692Z,16.80
2022-07-29T21:34:57.484Z,16.70
2022-07-29T21:37:24.304Z,16.70
2022-07-29T21:39:51.093Z,16.70
2022-07-29T21:42:17.967Z,16.70
2022-07-29T21:44:44.833Z,16.70
2022-07-29T21:47:11.916Z,16.70
2022-07-29T21:49:39.222Z,16.60
2022-07-29T21:52:06.249Z,16.50
2022-07-29T21:54:34.883Z,16.60
2022-07-29T21:57:01.834Z,16.60
2022-07-29T21:59:29.530Z,16.60
2022-07-29T22:01:56.813Z,16.60
2022-07-29T22:04:23.880Z,16.60
2022-07-29T22:06:50.628Z,16.70
2022-07-29T22:09:17.519Z,16.70
2022-07-29T22:11:44.418Z,16.70
2022-07-29T22:14:12.331Z,16.80
2022-07-29T22:16:39.147Z,16.80
2022-07-29T22:19:05.966Z,16.90
2022-07-29T22:21:32.826Z,17.00
2022-07-29T22:24:00.552Z,17.00
2022-07-29T22:26:27.377Z,17.00
2022-07-29T22:28:54.150Z,17.00
2022-07-29T22:31:21.012Z,17.10
2022-07-29T22:33:50.779Z,17.10
2022-07-29T22:36:17.897Z,17.10
2022-07-29T22:38:46.448Z,17.10
2022-07-29T22:41:15.930Z,17.20
2022-07-29T22:43:42.754Z,17.20
2022-07-29T22:46:10.192Z,17.30
2022-07-29T22:48:37.163Z,17.30
2022-07-29T22:51:04.089Z,17.40
2022-07-29T22:53:30.922Z,17.50
2022-07-29T22:55:57.763Z,17.50
2022-07-29T22:58:24.779Z,17.50
2022-07-29T23:00:51.626Z,17.50
2022-07-29T23:03:18.571Z,17.50
2022-07-29T23:05:45.368Z,17.40
2022-07-29T23:08:12.259Z,17.40
2022-07-29T23:10:39.046Z,17.30
2022-07-29T23:13:05.849Z,17.20
2022-07-29T23:15:32.760Z,17.20
2022-07-29T23:17:59.592Z,17.20
2022-07-29T23:20:26.484Z,17.20
2022-07-29T23:22:53.217Z,17.20
2022-07-29T23:25:20.083Z,17.20
2022-07-29T23:27:46.911Z,17.20
2022-07-29T23:30:13.852Z,17.20
2022-07-29T23:32:40.730Z,17.20
2022-07-29T23:35:07.866Z,17.20
2022-07-29T23:37:35.050Z,17.20
2022-07-29T23:40:01.868Z,17.20
2022-07-29T23:42:28.670Z,17.20
2022-07-29T23:44:55.464Z,17.10
2022-07-29T23:47:22.196Z,17.10
2022-07-29T23:49:50.078Z,17.00
2022-07-29T23:52:18.696Z,17.00
2022-07-29T23:54:45.511Z,17.00
2022-07-29T23:57:12.280Z,17.00
2022-07-29T23:59:39.091Z,17.00
